sensor_id;sensor_type;location;lat;lon;timestamp;temperature;humidity
14531;DHT22;7352;50.866;4.366;2023-05-16T00:01:32;11.80;99.90
14531;DHT22;7352;50.866;4.366;2023-05-16T00:04:04;11.90;99.90
14531;DHT22;7352;50.866;4.366;2023-05-16T00:06:33;11.80;99.90
14531;DHT22;7352;50.866;4.366;2023-05-16T00:09:07;11.90;99.90
14531;DHT22;7352;50.866;4.366;2023-05-16T00:11:38;11.80;99.90
14531;DHT22;7352;50.866;4.366;2023-05-16T00:14:09;11.80;99.90
14531;DHT22;7352;50.866;4.366;2023-05-16T00:16:43;11.80;99.90
14531;DHT22;7352;50.866;4.366;2023-05-16T00:19:10;11.80;99.90
14531;DHT22;7352;50.866;4.366;2023-05-16T00:21:38;11.80;99.90
14531;DHT22;7352;50.866;4.366;2023-05-16T00:24:07;11.70;99.90
14531;DHT22;7352;50.866;4.366;2023-05-16T00:26:35;11.70;99.90
14531;DHT22;7352;50.866;4.366;2023-05-16T00:29:02;11.60;99.90
14531;DHT22;7352;50.866;4.366;2023-05-16T00:31:31;11.50;99.90
14531;DHT22;7352;50.866;4.366;2023-05-16T00:33:58;11.50;99.90
14531;DHT22;7352;50.866;4.366;2023-05-16T00:36:25;11.40;99.90
14531;DHT22;7352;50.866;4.366;2023-05-16T00:38:53;11.40;99.90
14531;DHT22;7352;50.866;4.366;2023-05-16T00:41:22;11.60;99.90
14531;DHT22;7352;50.866;4.366;2023-05-16T00:43:51;11.60;99.90
14531;DHT22;7352;50.866;4.366;2023-05-16T00:46:18;11.50;99.90
14531;DHT22;7352;50.866;4.366;2023-05-16T00:48:45;11.40;99.90
14531;DHT22;7352;50.866;4.366;2023-05-16T00:51:12;11.40;99.90
14531;DHT22;7352;50.866;4.366;2023-05-16T00:53:40;11.30;99.90
14531;DHT22;7352;50.866;4.366;2023-05-16T00:56:08;11.30;99.90
14531;DHT22;7352;50.866;4.366;2023-05-16T00:58:37;11.20;99.90
14531;DHT22;7352;50.866;4.366;2023-05-16T01:01:05;11.30;99.90
14531;DHT22;7352;50.866;4.366;2023-05-16T01:03:33;11.10;99.90
14531;DHT22;7352;50.866;4.366;2023-05-16T01:06:00;11.20;99.90
14531;DHT22;7352;50.866;4.366;2023-05-16T01:08:27;11.10;99.90
14531;DHT22;7352;50.866;4.366;2023-05-16T01:11:01;11.10;99.90
14531;DHT22;7352;50.866;4.366;2023-05-16T01:13:35;10.80;99.90
14531;DHT22;7352;50.866;4.366;2023-05-16T01:16:12;10.80;99.90
14531;DHT22;7352;50.866;4.366;2023-05-16T01:18:42;10.80;99.90
14531;DHT22;7352;50.866;4.366;2023-05-16T01:21:17;11.00;99.90
14531;DHT22;7352;50.866;4.366;2023-05-16T01:23:51;11.00;99.90
14531;DHT22;7352;50.866;4.366;2023-05-16T01:26:22;11.00;99.90
14531;DHT22;7352;50.866;4.366;2023-05-16T01:28:50;11.00;99.90
14531;DHT22;7352;50.866;4.366;2023-05-16T01:31:18;10.90;99.90
14531;DHT22;7352;50.866;4.366;2023-05-16T01:33:45;10.80;99.90
14531;DHT22;7352;50.866;4.366;2023-05-16T01:36:19;10.80;99.90
14531;DHT22;7352;50.866;4.366;2023-05-16T01:39:00;10.70;99.90
14531;DHT22;7352;50.866;4.366;2023-05-16T01:41:46;11.00;99.90
14531;DHT22;7352;50.866;4.366;2023-05-16T01:44:19;10.90;99.90
14531;DHT22;7352;50.866;4.366;2023-05-16T01:46:53;10.80;99.90
14531;DHT22;7352;50.866;4.366;2023-05-16T01:49:25;10.80;99.90
14531;DHT22;7352;50.866;4.366;2023-05-16T01:52:01;10.80;99.90
14531;DHT22;7352;50.866;4.366;2023-05-16T01:54:31;10.60;99.90
14531;DHT22;7352;50.866;4.366;2023-05-16T01:57:03;10.60;99.90
14531;DHT22;7352;50.866;4.366;2023-05-16T01:59:31;10.50;99.90
14531;DHT22;7352;50.866;4.366;2023-05-16T02:02:03;10.60;99.90
14531;DHT22;7352;50.866;4.366;2023-05-16T02:04:31;10.80;99.90
14531;DHT22;7352;50.866;4.366;2023-05-16T02:06:58;10.70;99.90
14531;DHT22;7352;50.866;4.366;2023-05-16T02:09:26;10.90;99.90
14531;DHT22;7352;50.866;4.366;2023-05-16T02:12:09;10.70;99.90
14531;DHT22;7352;50.866;4.366;2023-05-16T02:14:35;10.80;99.90
14531;DHT22;7352;50.866;4.366;2023-05-16T02:17:03;10.70;99.90
14531;DHT22;7352;50.866;4.366;2023-05-16T02:19:30;10.60;99.90
14531;DHT22;7352;50.866;4.366;2023-05-16T02:21:58;10.70;99.90
14531;DHT22;7352;50.866;4.366;2023-05-16T02:24:25;10.60;99.90
14531;DHT22;7352;50.866;4.366;2023-05-16T02:26:52;10.50;99.90
14531;DHT22;7352;50.866;4.366;2023-05-16T02:29:21;10.60;99.90
14531;DHT22;7352;50.866;4.366;2023-05-16T02:31:49;10.50;99.90
14531;DHT22;7352;50.866;4.366;2023-05-16T02:34:16;10.40;99.90
14531;DHT22;7352;50.866;4.366;2023-05-16T02:36:44;10.40;99.90
14531;DHT22;7352;50.866;4.366;2023-05-16T02:39:11;10.50;99.90
14531;DHT22;7352;50.866;4.366;2023-05-16T02:41:38;10.40;99.90
14531;DHT22;7352;50.866;4.366;2023-05-16T02:44:05;10.40;99.90
14531;DHT22;7352;50.866;4.366;2023-05-16T02:46:34;10.40;99.90
14531;DHT22;7352;50.866;4.366;2023-05-16T02:49:01;10.20;99.90
14531;DHT22;7352;50.866;4.366;2023-05-16T02:51:28;10.10;99.90
14531;DHT22;7352;50.866;4.366;2023-05-16T02:53:56;10.10;99.90
14531;DHT22;7352;50.866;4.366;2023-05-16T02:56:24;10.00;99.90
14531;DHT22;7352;50.866;4.366;2023-05-16T02:58:53;10.20;99.90
14531;DHT22;7352;50.866;4.366;2023-05-16T03:01:20;10.40;99.90
14531;DHT22;7352;50.866;4.366;2023-05-16T03:03:55;10.20;99.90
14531;DHT22;7352;50.866;4.366;2023-05-16T03:06:23;10.20;99.90
14531;DHT22;7352;50.866;4.366;2023-05-16T03:08:51;10.30;99.90
14531;DHT22;7352;50.866;4.366;2023-05-16T03:11:19;10.40;99.90
14531;DHT22;7352;50.866;4.366;2023-05-16T03:13:46;10.40;99.90
14531;DHT22;7352;50.866;4.366;2023-05-16T03:16:13;10.30;99.90
14531;DHT22;7352;50.866;4.366;2023-05-16T03:18:44;10.30;99.90
14531;DHT22;7352;50.866;4.366;2023-05-16T03:21:16;10.30;99.90
14531;DHT22;7352;50.866;4.366;2023-05-16T03:23:43;10.40;99.90
14531;DHT22;7352;50.866;4.366;2023-05-16T03:26:10;10.20;99.90
14531;DHT22;7352;50.866;4.366;2023-05-16T03:28:37;10.30;99.90
14531;DHT22;7352;50.866;4.366;2023-05-16T03:31:08;10.30;99.90
14531;DHT22;7352;50.866;4.366;2023-05-16T03:33:36;10.20;99.90
14531;DHT22;7352;50.866;4.366;2023-05-16T03:36:03;10.30;99.90
14531;DHT22;7352;50.866;4.366;2023-05-16T03:38:32;10.40;99.90
14531;DHT22;7352;50.866;4.366;2023-05-16T03:40:59;10.00;99.90
14531;DHT22;7352;50.866;4.366;2023-05-16T03:43:26;10.10;99.90
14531;DHT22;7352;50.866;4.366;2023-05-16T03:45:54;10.10;99.90
14531;DHT22;7352;50.866;4.366;2023-05-16T03:48:21;10.10;99.90
14531;DHT22;7352;50.866;4.366;2023-05-16T03:50:48;10.00;99.90
14531;DHT22;7352;50.866;4.366;2023-05-16T03:53:16;10.00;99.90
14531;DHT22;7352;50.866;4.366;2023-05-16T03:55:49;10.10;99.90
14531;DHT22;7352;50.866;4.366;2023-05-16T03:58:16;10.10;99.90
14531;DHT22;7352;50.866;4.366;2023-05-16T04:00:43;10.20;99.90
14531;DHT22;7352;50.866;4.366;2023-05-16T04:03:11;10.40;99.90
14531;DHT22;7352;50.866;4.366;2023-05-16T04:05:38;10.20;99.90
14531;DHT22;7352;50.866;4.366;2023-05-16T04:08:05;10.10;99.90
14531;DHT22;7352;50.866;4.366;2023-05-16T04:10:32;10.10;99.90
14531;DHT22;7352;50.866;4.366;2023-05-16T04:13:02;10.10;99.90
14531;DHT22;7352;50.866;4.366;2023-05-16T04:15:29;10.00;99.90
14531;DHT22;7352;50.866;4.366;2023-05-16T04:17:56;10.00;99.90
14531;DHT22;7352;50.866;4.366;2023-05-16T04:20:24;10.10;99.90
14531;DHT22;7352;50.866;4.366;2023-05-16T04:22:51;10.10;99.90
14531;DHT22;7352;50.866;4.366;2023-05-16T04:25:20;10.10;99.90
14531;DHT22;7352;50.866;4.366;2023-05-16T04:27:47;10.00;99.90
14531;DHT22;7352;50.866;4.366;2023-05-16T04:30:18;10.00;99.90
14531;DHT22;7352;50.866;4.366;2023-05-16T04:32:45;10.10;99.90
14531;DHT22;7352;50.866;4.366;2023-05-16T04:35:12;10.00;99.90
14531;DHT22;7352;50.866;4.366;2023-05-16T04:37:40;10.10;99.90
14531;DHT22;7352;50.866;4.366;2023-05-16T04:40:10;10.10;99.90
14531;DHT22;7352;50.866;4.366;2023-05-16T04:42:39;10.20;99.90
14531;DHT22;7352;50.866;4.366;2023-05-16T04:45:07;10.20;99.90
14531;DHT22;7352;50.866;4.366;2023-05-16T04:47:40;10.20;99.90
14531;DHT22;7352;50.866;4.366;2023-05-16T04:50:08;10.20;99.90
14531;DHT22;7352;50.866;4.366;2023-05-16T04:52:36;10.40;99.90
14531;DHT22;7352;50.866;4.366;2023-05-16T04:55:04;10.10;99.90
14531;DHT22;7352;50.866;4.366;2023-05-16T04:57:31;10.30;99.90
14531;DHT22;7352;50.866;4.366;2023-05-16T05:00:00;10.30;99.90
14531;DHT22;7352;50.866;4.366;2023-05-16T05:02:30;10.30;99.90
14531;DHT22;7352;50.866;4.366;2023-05-16T05:04:58;10.40;99.90
14531;DHT22;7352;50.866;4.366;2023-05-16T05:07:26;10.60;99.90
14531;DHT22;7352;50.866;4.366;2023-05-16T05:09:54;10.50;99.90
14531;DHT22;7352;50.866;4.366;2023-05-16T05:12:22;10.60;99.90
14531;DHT22;7352;50.866;4.366;2023-05-16T05:14:49;10.50;99.90
14531;DHT22;7352;50.866;4.366;2023-05-16T05:17:16;10.40;99.90
14531;DHT22;7352;50.866;4.366;2023-05-16T05:19:44;10.60;99.90
14531;DHT22;7352;50.866;4.366;2023-05-16T05:22:13;10.70;99.90
14531;DHT22;7352;50.866;4.366;2023-05-16T05:24:41;10.80;99.90
14531;DHT22;7352;50.866;4.366;2023-05-16T05:27:08;10.60;99.90
14531;DHT22;7352;50.866;4.366;2023-05-16T05:29:35;10.70;99.90
14531;DHT22;7352;50.866;4.366;2023-05-16T05:32:03;10.70;99.90
14531;DHT22;7352;50.866;4.366;2023-05-16T05:34:30;11.00;99.90
14531;DHT22;7352;50.866;4.366;2023-05-16T05:36:57;11.00;99.90
14531;DHT22;7352;50.866;4.366;2023-05-16T05:39:26;10.90;99.90
14531;DHT22;7352;50.866;4.366;2023-05-16T05:41:53;11.10;99.90
14531;DHT22;7352;50.866;4.366;2023-05-16T05:44:25;11.10;99.90
14531;DHT22;7352;50.866;4.366;2023-05-16T05:46:53;11.00;99.90
14531;DHT22;7352;50.866;4.366;2023-05-16T05:49:23;11.00;99.90
14531;DHT22;7352;50.866;4.366;2023-05-16T05:52:04;11.00;99.90
14531;DHT22;7352;50.866;4.366;2023-05-16T05:54:33;11.10;99.90
14531;DHT22;7352;50.866;4.366;2023-05-16T05:57:00;11.10;99.90
14531;DHT22;7352;50.866;4.366;2023-05-16T05:59:39;11.20;99.90
14531;DHT22;7352;50.866;4.366;2023-05-16T06:02:07;11.30;99.90
14531;DHT22;7352;50.866;4.366;2023-05-16T06:04:35;11.30;99.90
14531;DHT22;7352;50.866;4.366;2023-05-16T06:07:03;11.40;99.90
14531;DHT22;7352;50.866;4.366;2023-05-16T06:09:32;11.30;99.90
14531;DHT22;7352;50.866;4.366;2023-05-16T06:12:01;11.50;99.90
14531;DHT22;7352;50.866;4.366;2023-05-16T06:14:29;11.30;99.90
14531;DHT22;7352;50.866;4.366;2023-05-16T06:16:56;11.40;99.90
14531;DHT22;7352;50.866;4.366;2023-05-16T06:19:26;11.60;99.90
14531;DHT22;7352;50.866;4.366;2023-05-16T06:22:12;11.70;99.90
14531;DHT22;7352;50.866;4.366;2023-05-16T06:24:51;11.70;99.90
14531;DHT22;7352;50.866;4.366;2023-05-16T06:27:18;12.00;99.90
14531;DHT22;7352;50.866;4.366;2023-05-16T06:29:45;12.00;99.90
14531;DHT22;7352;50.866;4.366;2023-05-16T06:32:13;12.30;99.90
14531;DHT22;7352;50.866;4.366;2023-05-16T06:34:40;12.40;99.90
14531;DHT22;7352;50.866;4.366;2023-05-16T06:37:21;12.60;99.90
14531;DHT22;7352;50.866;4.366;2023-05-16T06:39:52;12.70;99.90
14531;DHT22;7352;50.866;4.366;2023-05-16T06:42:23;12.60;99.90
14531;DHT22;7352;50.866;4.366;2023-05-16T06:44:51;12.60;99.90
14531;DHT22;7352;50.866;4.366;2023-05-16T06:47:23;12.40;99.90
14531;DHT22;7352;50.866;4.366;2023-05-16T06:49:50;12.40;99.90
14531;DHT22;7352;50.866;4.366;2023-05-16T06:52:23;12.50;99.90
14531;DHT22;7352;50.866;4.366;2023-05-16T06:54:56;12.50;99.90
14531;DHT22;7352;50.866;4.366;2023-05-16T06:57:23;12.50;99.90
14531;DHT22;7352;50.866;4.366;2023-05-16T06:59:53;12.70;99.90
14531;DHT22;7352;50.866;4.366;2023-05-16T07:02:23;12.80;99.90
14531;DHT22;7352;50.866;4.366;2023-05-16T07:04:54;13.00;99.90
14531;DHT22;7352;50.866;4.366;2023-05-16T07:07:24;13.20;99.90
14531;DHT22;7352;50.866;4.366;2023-05-16T07:09:56;13.20;99.90
14531;DHT22;7352;50.866;4.366;2023-05-16T07:12:27;13.20;99.90
14531;DHT22;7352;50.866;4.366;2023-05-16T07:14:54;13.20;99.90
14531;DHT22;7352;50.866;4.366;2023-05-16T07:17:27;13.30;99.90
14531;DHT22;7352;50.866;4.366;2023-05-16T07:20:06;13.20;99.90
14531;DHT22;7352;50.866;4.366;2023-05-16T07:22:37;13.40;99.90
14531;DHT22;7352;50.866;4.366;2023-05-16T07:25:17;13.20;99.90
14531;DHT22;7352;50.866;4.366;2023-05-16T07:27:45;13.00;99.90
14531;DHT22;7352;50.866;4.366;2023-05-16T07:30:13;12.70;99.90
14531;DHT22;7352;50.866;4.366;2023-05-16T07:32:40;12.60;99.90
14531;DHT22;7352;50.866;4.366;2023-05-16T07:35:11;12.70;99.90
14531;DHT22;7352;50.866;4.366;2023-05-16T07:37:39;12.70;99.90
14531;DHT22;7352;50.866;4.366;2023-05-16T07:40:10;12.80;99.90
14531;DHT22;7352;50.866;4.366;2023-05-16T07:42:39;13.00;99.90
14531;DHT22;7352;50.866;4.366;2023-05-16T07:45:06;13.20;99.90
14531;DHT22;7352;50.866;4.366;2023-05-16T07:47:34;13.20;99.90
14531;DHT22;7352;50.866;4.366;2023-05-16T07:50:01;13.20;99.90
14531;DHT22;7352;50.866;4.366;2023-05-16T07:52:36;13.20;99.90
14531;DHT22;7352;50.866;4.366;2023-05-16T07:55:09;13.30;99.90
14531;DHT22;7352;50.866;4.366;2023-05-16T07:57:36;13.50;99.90
14531;DHT22;7352;50.866;4.366;2023-05-16T08:00:05;13.70;99.90
14531;DHT22;7352;50.866;4.366;2023-05-16T08:02:33;13.50;99.90
14531;DHT22;7352;50.866;4.366;2023-05-16T08:05:00;13.50;99.90
14531;DHT22;7352;50.866;4.366;2023-05-16T08:07:27;13.40;99.90
14531;DHT22;7352;50.866;4.366;2023-05-16T08:09:55;13.60;99.90
14531;DHT22;7352;50.866;4.366;2023-05-16T08:12:23;13.50;99.90
14531;DHT22;7352;50.866;4.366;2023-05-16T08:14:51;13.60;99.90
14531;DHT22;7352;50.866;4.366;2023-05-16T08:17:18;13.50;99.90
14531;DHT22;7352;50.866;4.366;2023-05-16T08:19:45;13.50;99.90
14531;DHT22;7352;50.866;4.366;2023-05-16T08:22:18;13.50;99.60
14531;DHT22;7352;50.866;4.366;2023-05-16T08:24:47;13.60;99.90
14531;DHT22;7352;50.866;4.366;2023-05-16T08:27:14;14.00;99.40
14531;DHT22;7352;50.866;4.366;2023-05-16T08:29:43;14.20;98.80
14531;DHT22;7352;50.866;4.366;2023-05-16T08:32:10;14.30;98.00
14531;DHT22;7352;50.866;4.366;2023-05-16T08:34:37;14.20;97.60
14531;DHT22;7352;50.866;4.366;2023-05-16T08:37:04;14.30;97.80
14531;DHT22;7352;50.866;4.366;2023-05-16T08:39:32;14.10;97.30
14531;DHT22;7352;50.866;4.366;2023-05-16T08:41:59;14.10;97.80
14531;DHT22;7352;50.866;4.366;2023-05-16T08:44:28;14.30;98.10
14531;DHT22;7352;50.866;4.366;2023-05-16T08:47:05;14.50;99.10
14531;DHT22;7352;50.866;4.366;2023-05-16T08:49:34;14.90;97.60
14531;DHT22;7352;50.866;4.366;2023-05-16T08:52:02;15.10;97.20
14531;DHT22;7352;50.866;4.366;2023-05-16T08:54:31;15.20;98.30
14531;DHT22;7352;50.866;4.366;2023-05-16T08:57:00;15.40;97.90
14531;DHT22;7352;50.866;4.366;2023-05-16T08:59:28;15.20;97.50
14531;DHT22;7352;50.866;4.366;2023-05-16T09:01:57;15.00;98.20
14531;DHT22;7352;50.866;4.366;2023-05-16T09:04:24;14.90;99.00
14531;DHT22;7352;50.866;4.366;2023-05-16T09:06:52;14.80;98.80
14531;DHT22;7352;50.866;4.366;2023-05-16T09:09:20;14.60;99.20
14531;DHT22;7352;50.866;4.366;2023-05-16T09:11:48;14.70;97.80
14531;DHT22;7352;50.866;4.366;2023-05-16T09:14:15;14.80;98.40
14531;DHT22;7352;50.866;4.366;2023-05-16T09:16:43;14.80;97.50
14531;DHT22;7352;50.866;4.366;2023-05-16T09:19:13;14.70;98.00
14531;DHT22;7352;50.866;4.366;2023-05-16T09:21:41;15.00;97.90
14531;DHT22;7352;50.866;4.366;2023-05-16T09:24:08;15.00;96.90
14531;DHT22;7352;50.866;4.366;2023-05-16T09:26:37;14.80;97.00
14531;DHT22;7352;50.866;4.366;2023-05-16T09:29:09;14.70;97.50
14531;DHT22;7352;50.866;4.366;2023-05-16T09:31:38;14.70;97.00
14531;DHT22;7352;50.866;4.366;2023-05-16T09:34:07;14.90;97.40
14531;DHT22;7352;50.866;4.366;2023-05-16T09:36:38;15.20;96.90
14531;DHT22;7352;50.866;4.366;2023-05-16T09:39:06;15.60;97.30
14531;DHT22;7352;50.866;4.366;2023-05-16T09:41:34;15.70;96.50
14531;DHT22;7352;50.866;4.366;2023-05-16T09:44:03;15.80;95.60
14531;DHT22;7352;50.866;4.366;2023-05-16T09:46:32;15.80;95.70
14531;DHT22;7352;50.866;4.366;2023-05-16T09:49:00;15.70;95.10
14531;DHT22;7352;50.866;4.366;2023-05-16T09:51:27;15.70;94.80
14531;DHT22;7352;50.866;4.366;2023-05-16T09:53:57;15.30;94.60
14531;DHT22;7352;50.866;4.366;2023-05-16T09:56:24;15.20;94.80
14531;DHT22;7352;50.866;4.366;2023-05-16T09:58:51;15.30;95.00
14531;DHT22;7352;50.866;4.366;2023-05-16T10:01:20;15.40;94.70
14531;DHT22;7352;50.866;4.366;2023-05-16T10:03:48;15.30;94.30
14531;DHT22;7352;50.866;4.366;2023-05-16T10:06:17;15.20;93.70
14531;DHT22;7352;50.866;4.366;2023-05-16T10:08:45;15.10;93.90
14531;DHT22;7352;50.866;4.366;2023-05-16T10:11:16;15.30;94.10
14531;DHT22;7352;50.866;4.366;2023-05-16T10:13:45;15.40;94.20
14531;DHT22;7352;50.866;4.366;2023-05-16T10:16:17;15.40;93.70
14531;DHT22;7352;50.866;4.366;2023-05-16T10:18:47;15.20;93.50
14531;DHT22;7352;50.866;4.366;2023-05-16T10:21:15;15.10;93.40
14531;DHT22;7352;50.866;4.366;2023-05-16T10:23:47;15.30;94.10
14531;DHT22;7352;50.866;4.366;2023-05-16T10:26:28;15.60;93.80
14531;DHT22;7352;50.866;4.366;2023-05-16T10:28:56;15.70;92.50
14531;DHT22;7352;50.866;4.366;2023-05-16T10:31:24;15.40;93.10
14531;DHT22;7352;50.866;4.366;2023-05-16T10:33:52;15.50;93.20
14531;DHT22;7352;50.866;4.366;2023-05-16T10:36:20;15.40;92.90
14531;DHT22;7352;50.866;4.366;2023-05-16T10:38:48;15.70;92.90
14531;DHT22;7352;50.866;4.366;2023-05-16T10:41:18;15.80;92.60
14531;DHT22;7352;50.866;4.366;2023-05-16T10:43:56;15.70;91.60
14531;DHT22;7352;50.866;4.366;2023-05-16T10:46:26;15.80;91.50
14531;DHT22;7352;50.866;4.366;2023-05-16T10:48:54;16.00;90.30
14531;DHT22;7352;50.866;4.366;2023-05-16T10:51:35;16.10;90.90
14531;DHT22;7352;50.866;4.366;2023-05-16T10:54:08;16.10;90.50
14531;DHT22;7352;50.866;4.366;2023-05-16T10:56:37;16.10;91.30
14531;DHT22;7352;50.866;4.366;2023-05-16T10:59:21;16.20;91.90
14531;DHT22;7352;50.866;4.366;2023-05-16T11:01:52;16.40;91.00
14531;DHT22;7352;50.866;4.366;2023-05-16T11:04:19;16.40;91.00
14531;DHT22;7352;50.866;4.366;2023-05-16T11:06:50;16.40;91.20
14531;DHT22;7352;50.866;4.366;2023-05-16T11:09:20;16.30;91.50
14531;DHT22;7352;50.866;4.366;2023-05-16T11:11:57;16.60;91.40
14531;DHT22;7352;50.866;4.366;2023-05-16T11:14:28;16.40;90.50
14531;DHT22;7352;50.866;4.366;2023-05-16T11:17:05;16.20;90.70
14531;DHT22;7352;50.866;4.366;2023-05-16T11:19:36;16.40;91.90
14531;DHT22;7352;50.866;4.366;2023-05-16T11:22:09;16.70;90.70
14531;DHT22;7352;50.866;4.366;2023-05-16T11:24:49;16.80;90.70
14531;DHT22;7352;50.866;4.366;2023-05-16T11:27:25;17.00;89.90
14531;DHT22;7352;50.866;4.366;2023-05-16T11:29:57;17.30;88.20
14531;DHT22;7352;50.866;4.366;2023-05-16T11:32:24;17.40;88.00
14531;DHT22;7352;50.866;4.366;2023-05-16T11:34:52;17.40;88.70
14531;DHT22;7352;50.866;4.366;2023-05-16T11:37:19;17.10;89.30
14531;DHT22;7352;50.866;4.366;2023-05-16T11:39:47;16.90;89.00
14531;DHT22;7352;50.866;4.366;2023-05-16T11:42:14;16.80;90.30
14531;DHT22;7352;50.866;4.366;2023-05-16T11:44:42;17.00;90.40
14531;DHT22;7352;50.866;4.366;2023-05-16T11:47:11;17.10;90.90
14531;DHT22;7352;50.866;4.366;2023-05-16T11:49:38;17.00;88.60
14531;DHT22;7352;50.866;4.366;2023-05-16T11:52:07;16.70;89.20
14531;DHT22;7352;50.866;4.366;2023-05-16T11:54:36;16.60;90.60
14531;DHT22;7352;50.866;4.366;2023-05-16T11:57:03;16.70;91.20
14531;DHT22;7352;50.866;4.366;2023-05-16T11:59:31;16.90;90.60
14531;DHT22;7352;50.866;4.366;2023-05-16T12:02:02;16.70;88.70
14531;DHT22;7352;50.866;4.366;2023-05-16T12:04:31;16.70;90.20
14531;DHT22;7352;50.866;4.366;2023-05-16T12:06:59;16.70;89.50
14531;DHT22;7352;50.866;4.366;2023-05-16T12:09:28;16.60;90.30
14531;DHT22;7352;50.866;4.366;2023-05-16T12:11:55;16.80;89.60
14531;DHT22;7352;50.866;4.366;2023-05-16T12:14:23;17.00;90.50
14531;DHT22;7352;50.866;4.366;2023-05-16T12:16:51;17.10;86.60
14531;DHT22;7352;50.866;4.366;2023-05-16T12:19:19;17.20;88.30
14531;DHT22;7352;50.866;4.366;2023-05-16T12:21:51;17.20;88.40
14531;DHT22;7352;50.866;4.366;2023-05-16T12:24:18;17.20;89.50
14531;DHT22;7352;50.866;4.366;2023-05-16T12:26:46;17.10;89.30
14531;DHT22;7352;50.866;4.366;2023-05-16T12:29:13;17.00;86.40
14531;DHT22;7352;50.866;4.366;2023-05-16T12:31:40;17.10;86.50
14531;DHT22;7352;50.866;4.366;2023-05-16T12:34:17;17.20;85.70
14531;DHT22;7352;50.866;4.366;2023-05-16T12:36:51;17.20;83.70
14531;DHT22;7352;50.866;4.366;2023-05-16T12:39:20;17.20;84.70
14531;DHT22;7352;50.866;4.366;2023-05-16T12:41:48;17.30;80.70
14531;DHT22;7352;50.866;4.366;2023-05-16T12:44:18;17.30;82.10
14531;DHT22;7352;50.866;4.366;2023-05-16T12:46:46;17.40;83.30
14531;DHT22;7352;50.866;4.366;2023-05-16T12:49:19;17.40;83.70
14531;DHT22;7352;50.866;4.366;2023-05-16T12:51:52;17.60;81.90
14531;DHT22;7352;50.866;4.366;2023-05-16T12:54:20;17.60;81.80
14531;DHT22;7352;50.866;4.366;2023-05-16T12:56:50;17.50;82.20
14531;DHT22;7352;50.866;4.366;2023-05-16T12:59:17;17.50;81.00
14531;DHT22;7352;50.866;4.366;2023-05-16T13:01:44;17.50;79.00
14531;DHT22;7352;50.866;4.366;2023-05-16T13:04:11;17.30;79.00
14531;DHT22;7352;50.866;4.366;2023-05-16T13:06:43;17.40;79.90
14531;DHT22;7352;50.866;4.366;2023-05-16T13:09:12;17.60;79.20
14531;DHT22;7352;50.866;4.366;2023-05-16T13:11:40;17.50;78.30
14531;DHT22;7352;50.866;4.366;2023-05-16T13:14:07;17.30;78.00
14531;DHT22;7352;50.866;4.366;2023-05-16T13:16:34;17.10;79.70
14531;DHT22;7352;50.866;4.366;2023-05-16T13:19:01;17.10;81.10
14531;DHT22;7352;50.866;4.366;2023-05-16T13:21:30;17.10;81.30
14531;DHT22;7352;50.866;4.366;2023-05-16T13:23:57;17.30;82.30
14531;DHT22;7352;50.866;4.366;2023-05-16T13:26:26;17.60;79.50
14531;DHT22;7352;50.866;4.366;2023-05-16T13:28:53;17.60;78.60
14531;DHT22;7352;50.866;4.366;2023-05-16T13:31:21;17.80;80.30
14531;DHT22;7352;50.866;4.366;2023-05-16T13:33:51;17.90;80.20
14531;DHT22;7352;50.866;4.366;2023-05-16T13:36:18;18.00;81.10
14531;DHT22;7352;50.866;4.366;2023-05-16T13:38:45;18.00;80.60
14531;DHT22;7352;50.866;4.366;2023-05-16T13:41:12;18.20;79.90
14531;DHT22;7352;50.866;4.366;2023-05-16T13:43:41;18.10;81.20
14531;DHT22;7352;50.866;4.366;2023-05-16T13:46:08;17.80;82.10
14531;DHT22;7352;50.866;4.366;2023-05-16T13:48:35;18.10;83.00
14531;DHT22;7352;50.866;4.366;2023-05-16T13:51:02;18.10;81.30
14531;DHT22;7352;50.866;4.366;2023-05-16T13:53:30;18.30;81.70
14531;DHT22;7352;50.866;4.366;2023-05-16T13:55:58;18.20;79.90
14531;DHT22;7352;50.866;4.366;2023-05-16T13:58:25;18.30;80.60
14531;DHT22;7352;50.866;4.366;2023-05-16T14:00:55;18.10;80.50
14531;DHT22;7352;50.866;4.366;2023-05-16T14:03:22;18.00;80.40
14531;DHT22;7352;50.866;4.366;2023-05-16T14:05:49;18.10;79.40
14531;DHT22;7352;50.866;4.366;2023-05-16T14:08:17;18.10;77.60
14531;DHT22;7352;50.866;4.366;2023-05-16T14:10:47;18.10;78.60
14531;DHT22;7352;50.866;4.366;2023-05-16T14:13:14;17.90;80.90
14531;DHT22;7352;50.866;4.366;2023-05-16T14:15:41;17.90;80.80
14531;DHT22;7352;50.866;4.366;2023-05-16T14:18:10;17.60;80.50
14531;DHT22;7352;50.866;4.366;2023-05-16T14:20:46;17.40;80.90
14531;DHT22;7352;50.866;4.366;2023-05-16T14:23:15;17.50;80.40
14531;DHT22;7352;50.866;4.366;2023-05-16T14:25:42;18.00;79.80
14531;DHT22;7352;50.866;4.366;2023-05-16T14:28:09;18.00;78.30
14531;DHT22;7352;50.866;4.366;2023-05-16T14:30:36;18.40;79.00
14531;DHT22;7352;50.866;4.366;2023-05-16T14:33:03;18.80;78.70
14531;DHT22;7352;50.866;4.366;2023-05-16T14:35:32;19.10;75.40
14531;DHT22;7352;50.866;4.366;2023-05-16T14:37:59;19.30;75.00
14531;DHT22;7352;50.866;4.366;2023-05-16T14:40:26;19.40;72.30
14531;DHT22;7352;50.866;4.366;2023-05-16T14:42:53;19.50;73.00
14531;DHT22;7352;50.866;4.366;2023-05-16T14:45:20;19.50;73.00
14531;DHT22;7352;50.866;4.366;2023-05-16T14:47:47;19.50;73.70
14531;DHT22;7352;50.866;4.366;2023-05-16T14:50:14;19.50;72.40
14531;DHT22;7352;50.866;4.366;2023-05-16T14:52:43;19.60;73.30
14531;DHT22;7352;50.866;4.366;2023-05-16T14:55:10;19.30;72.10
14531;DHT22;7352;50.866;4.366;2023-05-16T14:57:37;19.40;72.80
14531;DHT22;7352;50.866;4.366;2023-05-16T15:00:06;19.50;72.10
14531;DHT22;7352;50.866;4.366;2023-05-16T15:02:35;19.60;71.90
14531;DHT22;7352;50.866;4.366;2023-05-16T15:05:02;19.90;71.50
14531;DHT22;7352;50.866;4.366;2023-05-16T15:07:30;20.20;71.80
14531;DHT22;7352;50.866;4.366;2023-05-16T15:10:02;20.30;71.50
14531;DHT22;7352;50.866;4.366;2023-05-16T15:12:29;20.50;70.30
14531;DHT22;7352;50.866;4.366;2023-05-16T15:14:56;20.40;70.70
14531;DHT22;7352;50.866;4.366;2023-05-16T15:17:23;20.60;72.10
14531;DHT22;7352;50.866;4.366;2023-05-16T15:19:50;20.80;70.20
14531;DHT22;7352;50.866;4.366;2023-05-16T15:22:18;20.40;70.80
14531;DHT22;7352;50.866;4.366;2023-05-16T15:24:45;20.40;70.90
14531;DHT22;7352;50.866;4.366;2023-05-16T15:27:14;20.70;72.60
14531;DHT22;7352;50.866;4.366;2023-05-16T15:29:41;20.00;71.00
14531;DHT22;7352;50.866;4.366;2023-05-16T15:32:09;19.70;71.60
14531;DHT22;7352;50.866;4.366;2023-05-16T15:34:39;19.70;73.30
14531;DHT22;7352;50.866;4.366;2023-05-16T15:37:06;19.80;73.80
14531;DHT22;7352;50.866;4.366;2023-05-16T15:39:33;20.30;73.80
14531;DHT22;7352;50.866;4.366;2023-05-16T15:42:00;20.60;72.20
14531;DHT22;7352;50.866;4.366;2023-05-16T15:44:37;20.30;71.50
14531;DHT22;7352;50.866;4.366;2023-05-16T15:47:13;20.50;71.20
14531;DHT22;7352;50.866;4.366;2023-05-16T15:49:42;20.50;73.00
14531;DHT22;7352;50.866;4.366;2023-05-16T15:52:10;21.10;72.10
14531;DHT22;7352;50.866;4.366;2023-05-16T15:54:37;21.70;71.70
14531;DHT22;7352;50.866;4.366;2023-05-16T15:57:04;22.40;70.70